createdAt,value
2023-05-20T00:00:08.646Z,16.70
2023-05-20T00:06:11.245Z,16.80
2023-05-20T00:12:13.884Z,17.00
2023-05-20T00:18:16.994Z,17.10
2023-05-20T00:24:19.596Z,17.20
2023-05-20T00:30:22.184Z,17.20
2023-05-20T00:36:24.802Z,17.20
2023-05-20T00:42:28.455Z,17.10
2023-05-20T00:48:33.531Z,17.10
2023-05-20T00:54:35.950Z,17.10
2023-05-20T01:00:38.536Z,17.10
2023-05-20T01:06:41.049Z,17.00
2023-05-20T01:12:46.778Z,17.00
2023-05-20T01:18:50.132Z,16.90
2023-05-20T01:24:55.953Z,16.90
2023-05-20T01:31:01.060Z,16.80
2023-05-20T01:37:06.236Z,16.70
2023-05-20T01:43:09.748Z,16.60
2023-05-20T01:49:12.086Z,16.50
2023-05-20T01:55:14.960Z,16.40
2023-05-20T02:01:18.091Z,16.40
2023-05-20T02:07:20.628Z,16.30
2023-05-20T02:13:23.155Z,16.20
2023-05-20T02:19:25.679Z,16.10
2023-05-20T02:25:28.059Z,15.90
2023-05-20T02:31:30.666Z,15.80
2023-05-20T02:37:33.087Z,15.60
2023-05-20T02:43:37.084Z,15.60
2023-05-20T02:49:39.612Z,15.60
2023-05-20T02:55:42.243Z,15.50
2023-05-20T03:01:45.736Z,15.50
2023-05-20T03:07:49.191Z,15.40
2023-05-20T03:13:51.798Z,15.50
2023-05-20T03:19:54.512Z,15.50
2023-05-20T03:25:58.180Z,15.60
2023-05-20T03:32:00.644Z,15.60
2023-05-20T03:38:03.178Z,15.60
2023-05-20T03:44:06.681Z,15.60
2023-05-20T03:50:09.251Z,15.70
2023-05-20T03:56:12.079Z,16.00
2023-05-20T04:02:16.794Z,16.30
2023-05-20T04:08:20.474Z,16.60
2023-05-20T04:14:23.415Z,16.80
2023-05-20T04:20:26.504Z,16.90
2023-05-20T04:26:31.890Z,17.10
2023-05-20T04:32:37.142Z,17.60
2023-05-20T04:38:40.539Z,18.30
2023-05-20T04:44:42.998Z,19.40
2023-05-20T04:50:45.439Z,19.40
2023-05-20T04:56:48.346Z,19.60
2023-05-20T05:02:50.953Z,20.10
2023-05-20T05:08:54.703Z,20.90
2023-05-20T05:14:59.082Z,20.90
2023-05-20T05:21:04.133Z,21.00
2023-05-20T05:27:07.510Z,21.30
2023-05-20T05:33:10.127Z,21.20
2023-05-20T05:39:12.968Z,21.30
2023-05-20T05:45:16.288Z,24.20
2023-05-20T05:51:19.383Z,25.70
2023-05-20T05:57:23.883Z,27.90
2023-05-20T06:03:26.585Z,27.40
2023-05-20T06:09:29.467Z,26.90
2023-05-20T06:15:32.555Z,26.90
2023-05-20T06:21:35.617Z,27.30
2023-05-20T06:27:38.387Z,24.80
2023-05-20T06:33:44.673Z,23.30
2023-05-20T06:39:54.166Z,22.90
2023-05-20T06:45:57.252Z,23.50
2023-05-20T06:52:06.030Z,22.80
2023-05-20T06:58:08.996Z,23.10
2023-05-20T07:04:13.552Z,23.60
2023-05-20T07:10:16.197Z,23.60
2023-05-20T07:16:18.722Z,23.70
2023-05-20T07:22:31.745Z,24.00
2023-05-20T07:28:57.653Z,27.00
2023-05-20T07:35:00.391Z,26.60
2023-05-20T07:41:02.996Z,25.70
2023-05-20T07:47:06.167Z,24.90
2023-05-20T07:53:09.950Z,24.80
2023-05-20T07:59:12.449Z,24.50
2023-05-20T08:05:20.867Z,25.10
2023-05-20T08:11:23.647Z,27.50
2023-05-20T08:17:26.565Z,27.50
2023-05-20T08:23:29.858Z,27.50
2023-05-20T08:29:32.622Z,27.40
2023-05-20T08:35:36.501Z,28.20
2023-05-20T08:41:39.938Z,29.10
2023-05-20T08:47:46.748Z,28.60
2023-05-20T08:53:49.458Z,30.40
2023-05-20T08:59:52.138Z,31.20
2023-05-20T09:05:54.804Z,32.00
2023-05-20T09:11:57.371Z,32.20
2023-05-20T09:18:04.237Z,33.00
2023-05-20T09:24:07.100Z,33.60
2023-05-20T09:30:09.829Z,34.40
2023-05-20T09:36:14.503Z,33.80
2023-05-20T09:42:24.606Z,33.70
2023-05-20T09:48:28.240Z,34.10
2023-05-20T09:54:31.795Z,31.90
2023-05-20T10:00:35.036Z,30.30
2023-05-20T10:06:56.693Z,29.30
2023-05-20T10:13:25.146Z,29.30
2023-05-20T10:19:33.397Z,30.80
2023-05-20T10:25:36.197Z,31.70
2023-05-20T10:31:46.378Z,31.80
2023-05-20T10:37:49.130Z,30.30
2023-05-20T10:44:05.398Z,31.00
2023-05-20T10:50:08.392Z,32.20
2023-05-20T10:56:25.482Z,32.10
2023-05-20T11:02:29.221Z,31.80
2023-05-20T11:08:34.283Z,32.00
2023-05-20T11:14:36.628Z,30.70
2023-05-20T11:20:38.970Z,29.70
2023-05-20T11:26:41.750Z,30.40
2023-05-20T11:32:45.120Z,31.60
2023-05-20T11:38:47.988Z,30.60
2023-05-20T11:44:50.218Z,31.10
2023-05-20T11:50:54.921Z,30.60
2023-05-20T11:56:57.472Z,30.70
2023-05-20T12:02:59.901Z,31.10
2023-05-20T12:09:07.476Z,29.90
2023-05-20T12:15:10.498Z,31.00
2023-05-20T12:21:12.988Z,31.60
2023-05-20T12:27:15.539Z,32.40
2023-05-20T12:33:18.067Z,32.40
2023-05-20T12:39:20.290Z,32.20
2023-05-20T12:45:22.670Z,32.70
2023-05-20T12:51:25.232Z,31.70
2023-05-20T12:57:27.708Z,30.50
2023-05-20T13:03:30.279Z,28.30
2023-05-20T13:09:33.671Z,27.00
2023-05-20T13:15:36.534Z,26.00
2023-05-20T13:21:38.954Z,25.20
2023-05-20T13:27:41.057Z,24.80
2023-05-20T13:33:43.596Z,24.90
2023-05-20T13:39:45.956Z,25.20
2023-05-20T13:45:48.370Z,25.40
2023-05-20T13:51:51.318Z,25.50
2023-05-20T13:57:54.619Z,25.30
2023-05-20T14:03:57.703Z,24.60
2023-05-20T14:10:00.309Z,24.40
2023-05-20T14:16:02.808Z,24.60
2023-05-20T14:22:05.179Z,24.50
2023-05-20T14:28:07.877Z,24.50
2023-05-20T14:34:10.408Z,24.20
2023-05-20T14:40:13.509Z,24.30
2023-05-20T14:46:15.899Z,24.20
2023-05-20T14:52:18.781Z,24.00
2023-05-20T14:58:21.468Z,24.00
2023-05-20T15:04:23.968Z,24.10
2023-05-20T15:10:26.592Z,24.30
2023-05-20T15:16:29.172Z,24.20
2023-05-20T15:22:31.663Z,24.10
2023-05-20T15:28:34.135Z,24.00
2023-05-20T15:34:37.019Z,24.10
2023-05-20T15:40:39.993Z,24.10
2023-05-20T15:46:42.657Z,23.90
2023-05-20T15:52:45.056Z,23.60
2023-05-20T15:58:47.535Z,23.30
2023-05-20T16:04:50.161Z,23.10
2023-05-20T16:10:53.204Z,22.90
2023-05-20T16:16:55.753Z,22.80
2023-05-20T16:22:57.961Z,22.70
2023-05-20T16:29:00.304Z,22.50
2023-05-20T16:35:03.138Z,22.20
2023-05-20T16:41:05.550Z,21.90
2023-05-20T16:47:09.610Z,21.70
2023-05-20T16:53:12.286Z,21.50
2023-05-20T16:59:15.604Z,21.20
2023-05-20T17:05:17.976Z,21.00
2023-05-20T17:11:20.693Z,20.80
2023-05-20T17:17:23.130Z,20.70
2023-05-20T17:23:25.522Z,20.50
2023-05-20T17:29:27.722Z,20.30
2023-05-20T17:35:32.197Z,20.20
2023-05-20T17:41:34.541Z,20.10
2023-05-20T17:47:36.960Z,19.90
2023-05-20T17:53:39.151Z,19.80
2023-05-20T17:59:42.225Z,19.60
2023-05-20T18:05:44.821Z,19.50
2023-05-20T18:11:47.333Z,19.40
2023-05-20T18:17:50.601Z,19.30
2023-05-20T18:23:53.064Z,19.20
2023-05-20T18:29:55.501Z,19.10
2023-05-20T18:35:58.121Z,19.10
2023-05-20T18:42:00.243Z,19.00
2023-05-20T18:48:02.696Z,18.90
2023-05-20T18:54:05.013Z,18.80
2023-05-20T19:00:12.615Z,18.70
2023-05-20T19:06:17.122Z,18.70
2023-05-20T19:12:19.855Z,18.50
2023-05-20T19:18:22.464Z,18.40
2023-05-20T19:24:24.596Z,18.30
2023-05-20T19:30:26.973Z,18.20
2023-05-20T19:36:29.202Z,18.10
2023-05-20T19:42:31.612Z,18.00
2023-05-20T19:48:34.494Z,18.00
2023-05-20T19:54:36.800Z,18.00
2023-05-20T20:00:39.216Z,18.00
2023-05-20T20:06:41.754Z,17.90
2023-05-20T20:12:43.923Z,17.90
2023-05-20T20:18:46.040Z,17.80
2023-05-20T20:24:50.096Z,17.70
2023-05-20T20:30:52.587Z,17.70
2023-05-20T20:36:55.126Z,17.60
2023-05-20T20:42:58.899Z,17.60
2023-05-20T20:49:01.644Z,17.70
2023-05-20T20:55:04.839Z,17.70
2023-05-20T21:01:07.525Z,17.60
2023-05-20T21:07:09.834Z,17.50
2023-05-20T21:13:12.035Z,17.40
2023-05-20T21:19:14.857Z,17.30
2023-05-20T21:25:17.266Z,17.30
2023-05-20T21:31:19.969Z,17.20
2023-05-20T21:37:22.672Z,17.20
2023-05-20T21:43:25.217Z,17.10
2023-05-20T21:49:27.646Z,17.10
2023-05-20T21:55:30.057Z,17.00
2023-05-20T22:01:32.417Z,17.00
2023-05-20T22:07:34.899Z,16.90
2023-05-20T22:13:41.740Z,16.80
2023-05-20T22:19:44.520Z,16.80
2023-05-20T22:25:47.078Z,16.70
2023-05-20T22:31:49.219Z,16.70
2023-05-20T22:37:51.552Z,16.70
2023-05-20T22:43:54.118Z,16.60
2023-05-20T22:49:57.887Z,16.50
2023-05-20T22:56:01.084Z,16.50
2023-05-20T23:02:04.284Z,16.50
2023-05-20T23:08:07.103Z,16.50
2023-05-20T23:14:09.427Z,16.40
2023-05-20T23:20:12.036Z,16.40
2023-05-20T23:26:14.165Z,16.30
2023-05-20T23:32:16.813Z,16.30
2023-05-20T23:38:19.495Z,16.30
2023-05-20T23:44:21.897Z,16.20
2023-05-20T23:50:24.269Z,16.20
2023-05-20T23:56:26.720Z,16.10
